Time;durP1;ratioP1;P1;durP2;ratioP2;P2;SDS_P1;SDS_P2;PMS_P1;PMS_P2;Temp;Humidity;BMP_temperature;BMP_pressure;BME280_temperature;BME280_humidity;BME280_pressure;Samples;Min_cycle;Max_cycle;Signal;HPM_P1;HPM_P2
2022/12/21 00:01:29;;;;;;;;;11.00;9.00;;;;;12.55;88.31;100834.72;4976001;28;45524;-49
2022/12/21 00:03:56;;;;;;;;;12.67;8.00;;;;;12.55;87.61;100838.22;4976144;28;45399;-49
2022/12/21 00:06:24;;;;;;;;;9.67;9.67;;;;;12.49;87.88;100818.34;4975994;28;45543;-48
2022/12/21 00:08:52;;;;;;;;;13.00;10.00;;;;;12.42;87.93;100817.28;4974626;28;45431;-48
2022/12/21 00:11:18;;;;;;;;;7.67;5.67;;;;;12.51;87.89;100844.84;4975952;28;45343;-47
2022/12/21 00:13:44;;;;;;;;;11.67;8.00;;;;;12.53;87.90;100836.72;4976012;28;45414;-47
2022/12/21 00:16:13;;;;;;;;;11.00;9.00;;;;;12.53;87.86;100842.88;4975751;28;45276;-49
2022/12/21 00:18:39;;;;;;;;;8.67;8.67;;;;;12.56;88.34;100852.41;4975884;28;45569;-46
2022/12/21 00:21:08;;;;;;;;;11.33;9.67;;;;;12.57;87.71;100843.41;4975755;28;45358;-46
2022/12/21 00:23:34;;;;;;;;;12.00;12.00;;;;;12.58;87.62;100845.91;4974654;28;45390;-46
2022/12/21 00:26:02;;;;;;;;;10.67;9.00;;;;;12.61;87.60;100850.09;4977065;28;46459;-48
2022/12/21 00:28:27;;;;;;;;;12.00;10.33;;;;;12.60;87.42;100849.28;4975755;28;45337;-53
2022/12/21 00:30:53;;;;;;;;;11.33;9.00;;;;;12.62;87.52;100846.44;4975895;28;45676;-50
2022/12/21 00:33:19;;;;;;;;;12.33;12.00;;;;;12.59;87.98;100833.41;4976041;28;45230;-49
2022/12/21 00:35:51;;;;;;;;;12.00;10.67;;;;;12.63;87.84;100832.09;4975558;28;45944;-50
2022/12/21 00:38:17;;;;;;;;;8.00;8.00;;;;;12.64;87.53;100834.63;4975579;28;45323;-49
2022/12/21 00:40:44;;;;;;;;;13.33;9.67;;;;;12.61;87.80;100828.75;4975567;28;45274;-46
2022/12/21 00:43:10;;;;;;;;;13.33;9.33;;;;;12.66;87.40;100837.13;4975767;28;45369;-47
2022/12/21 00:45:35;;;;;;;;;8.67;8.33;;;;;12.63;87.64;100832.09;4975301;28;46191;-49
2022/12/21 00:48:00;;;;;;;;;8.67;8.67;;;;;12.65;87.83;100836.28;4977075;28;45402;-46
2022/12/21 00:50:26;;;;;;;;;10.00;10.00;;;;;12.64;87.70;100831.97;4975637;28;45334;-49
2022/12/21 00:52:51;;;;;;;;;12.00;9.00;;;;;12.61;87.86;100826.94;4975957;28;45392;-47
2022/12/21 00:55:16;;;;;;;;;10.00;8.00;;;;;12.66;87.53;100832.63;4975381;28;47855;-47
2022/12/21 00:57:42;;;;;;;;;11.00;9.33;;;;;12.67;87.98;100834.28;4975272;28;48612;-48
2022/12/21 01:00:09;;;;;;;;;12.00;8.00;;;;;12.64;87.90;100841.75;4977919;27;45411;-48
2022/12/21 01:02:35;;;;;;;;;9.00;9.00;;;;;12.60;87.40;100822.59;4975690;28;45161;-45
2022/12/21 01:05:01;;;;;;;;;7.00;7.00;;;;;12.71;87.42;100835.66;4973793;28;46210;-46
2022/12/21 01:07:27;;;;;;;;;14.33;9.33;;;;;12.72;87.39;100847.16;4975581;28;45379;-49
2022/12/21 01:09:52;;;;;;;;;11.00;8.00;;;;;12.72;87.50;100849.81;4975346;28;45358;-49
2022/12/21 01:12:17;;;;;;;;;9.00;7.00;;;;;12.71;87.14;100840.97;4975646;28;45372;-49
2022/12/21 01:14:43;;;;;;;;;12.33;9.00;;;;;12.71;87.15;100846.31;4975192;28;45348;-48
2022/12/21 01:17:08;;;;;;;;;7.67;7.33;;;;;12.72;87.67;100847.16;4975323;28;45277;-50
2022/12/21 01:19:33;;;;;;;;;10.00;8.00;;;;;12.67;88.10;100841.47;4975166;28;45371;-48
2022/12/21 01:21:59;;;;;;;;;12.00;8.00;;;;;12.71;87.88;100845.50;4975306;28;45573;-49
2022/12/21 01:24:24;;;;;;;;;12.00;10.00;;;;;12.71;88.22;100849.00;4975126;28;47048;-49
2022/12/21 01:26:49;;;;;;;;;11.67;7.00;;;;;12.70;87.98;100858.00;4974979;28;45394;-46
2022/12/21 01:29:15;;;;;;;;;10.67;8.00;;;;;12.69;87.66;100855.50;4975219;28;45260;-48
2022/12/21 01:31:40;;;;;;;;;11.00;7.33;;;;;12.72;87.48;100857.84;4975099;28;45417;-48
2022/12/21 01:34:05;;;;;;;;;12.00;8.00;;;;;12.71;88.12;100857.00;4974610;28;53572;-48
2022/12/21 01:36:31;;;;;;;;;12.67;9.00;;;;;12.73;88.17;100863.03;4974442;28;45283;-48
2022/12/21 01:38:56;;;;;;;;;10.33;6.00;;;;;12.65;87.87;100848.81;4974948;28;45365;-46
2022/12/21 01:41:25;;;;;;;;;7.67;5.33;;;;;12.69;87.94;100845.66;4975175;28;45400;-46
2022/12/21 01:43:59;;;;;;;;;12.67;4.00;;;;;12.71;87.50;100854.31;4974783;28;46356;-49
2022/12/21 01:46:41;;;;;;;;;8.00;4.00;;;;;12.71;88.05;100858.84;4974812;28;45157;-47
2022/12/21 01:49:25;;;;;;;;;7.00;4.00;;;;;12.71;87.40;100875.69;4974896;28;45381;-49
2022/12/21 01:51:58;;;;;;;;;9.33;7.00;;;;;12.70;87.57;100871.34;4974920;28;45234;-49
2022/12/21 01:54:30;;;;;;;;;8.67;8.67;;;;;12.70;87.50;100867.84;4974447;28;46966;-49
2022/12/21 01:56:59;;;;;;;;;9.33;7.67;;;;;12.71;87.94;100869.50;4974469;28;45304;-48
2022/12/21 01:59:31;;;;;;;;;6.33;6.33;;;;;12.70;87.18;100874.00;4974833;28;45318;-47
2022/12/21 02:02:06;;;;;;;;;4.00;4.00;;;;;12.69;87.51;100872.34;4974981;28;45545;-46
2022/12/21 02:04:32;;;;;;;;;12.00;9.67;;;;;12.67;87.38;100877.00;4974429;28;46492;-47
2022/12/21 02:06:59;;;;;;;;;6.00;6.00;;;;;12.62;87.29;100870.47;4974423;28;45381;-47
2022/12/21 02:09:27;;;;;;;;;8.00;6.33;;;;;12.72;87.67;100888.06;4974707;28;45438;-48
2022/12/21 02:11:53;;;;;;;;;11.33;7.67;;;;;12.68;87.49;100878.69;4974701;28;45281;-48
2022/12/21 02:14:19;;;;;;;;;5.33;5.33;;;;;12.73;86.88;100889.72;4974360;28;46135;-46
2022/12/21 02:16:50;;;;;;;;;8.00;7.00;;;;;12.75;87.29;100897.56;4975547;28;45420;-46
2022/12/21 02:19:34;;;;;;;;;7.33;7.33;;;;;12.74;86.72;100891.41;4974552;28;45536;-57
2022/12/21 02:22:03;;;;;;;;;7.00;4.00;;;;;12.74;86.07;100904.75;4975745;28;45522;-47
2022/12/21 02:25:06;;;;;;;;;8.00;6.33;;;;;12.70;85.68;100895.38;4974202;28;46293;-48
2022/12/21 02:27:56;;;;;;;;;4.00;4.00;;;;;12.67;85.63;100897.50;4974044;28;45372;-46
2022/12/21 02:30:23;;;;;;;;;7.00;4.67;;;;;12.65;85.27;100891.50;4974146;28;45297;-44
2022/12/21 02:32:54;;;;;;;;;7.33;4.00;;;;;12.64;84.56;100895.13;4974482;28;45502;-46
2022/12/21 02:35:38;;;;;;;;;6.00;3.00;;;;;12.61;84.54;100896.31;4973981;28;46030;-49
2022/12/21 02:38:21;;;;;;;;;2.67;2.67;;;;;12.58;84.40;100888.59;4974044;28;45356;-54
2022/12/21 02:41:20;;;;;;;;;3.67;2.33;;;;;12.55;84.01;100885.41;4974170;28;45370;-49
2022/12/21 02:47:10;;;;;;;;;3.33;2.00;;;;;12.42;83.26;100883.16;4974751;28;45879;-47
2022/12/21 02:49:59;;;;;;;;;3.00;3.00;;;;;12.28;83.19;100878.38;4977587;28;45223;-46
2022/12/21 02:52:41;;;;;;;;;2.00;2.00;;;;;12.28;82.65;100891.72;4977210;28;45225;-47
2022/12/21 02:55:10;;;;;;;;;2.00;2.00;;;;;12.27;82.66;100900.72;4977108;28;45498;-46
2022/12/21 02:57:38;;;;;;;;;2.00;1.67;;;;;12.11;82.31;100883.56;4976576;28;47288;-46
2022/12/21 03:00:09;;;;;;;;;3.00;2.00;;;;;12.15;81.87;100895.63;4976771;28;45391;-55
2022/12/21 03:02:43;;;;;;;;;3.00;3.00;;;;;12.06;82.27;100899.19;4976667;28;45308;-50
2022/12/21 03:05:33;;;;;;;;;1.00;1.00;;;;;12.06;81.89;100909.03;4977088;28;45302;-47
2022/12/21 03:08:20;;;;;;;;;3.00;2.00;;;;;12.02;82.47;100911.16;4976613;28;45379;-47
2022/12/21 03:10:58;;;;;;;;;1.33;1.00;;;;;11.99;82.72;100914.94;4976550;28;45227;-45
2022/12/21 03:13:43;;;;;;;;;4.00;3.00;;;;;11.94;81.82;100911.91;4976942;28;45508;-47
2022/12/21 03:16:23;;;;;;;;;1.67;1.67;;;;;11.91;82.51;100922.03;4976870;28;45422;-46
2022/12/21 03:19:17;;;;;;;;;1.00;1.00;;;;;11.77;81.95;100907.38;4976533;28;46400;-47
2022/12/21 03:21:49;;;;;;;;;1.00;1.00;;;;;11.79;81.57;100924.03;4976481;28;45431;-47
2022/12/21 03:24:19;;;;;;;;;2.00;2.00;;;;;11.80;82.04;100927.53;4976765;28;45374;-47
2022/12/21 03:26:56;;;;;;;;;3.67;2.67;;;;;11.76;81.66;100918.19;4976745;28;45412;-46
2022/12/21 03:29:28;;;;;;;;;3.00;1.00;;;;;11.79;81.90;100915.22;4976475;28;46125;-46
2022/12/21 03:32:02;;;;;;;;;2.00;2.00;;;;;11.76;81.93;100923.53;4976533;28;45388;-45
2022/12/21 03:34:32;;;;;;;;;1.33;1.33;;;;;11.74;81.07;100916.50;4976619;28;45370;-57
2022/12/21 03:37:14;;;;;;;;;3.33;0.00;;;;;11.73;81.83;100922.81;4976465;28;45492;-45
2022/12/21 03:39:46;;;;;;;;;3.00;2.00;;;;;11.71;81.12;100929.28;4976288;28;46472;-49
2022/12/21 03:42:23;;;;;;;;;2.67;1.00;;;;;11.73;81.85;100927.31;4976270;28;45452;-47
2022/12/21 03:45:10;;;;;;;;;2.00;0.00;;;;;11.72;81.57;100925.66;4975139;28;45420;-48
2022/12/21 03:47:53;;;;;;;;;3.67;2.00;;;;;11.71;81.64;100923.94;4976455;28;45220;-53
2022/12/21 03:50:28;;;;;;;;;3.00;1.00;;;;;11.72;81.89;100933.66;4976364;28;45539;-49
2022/12/21 03:53:04;;;;;;;;;3.33;2.00;;;;;11.66;81.81;100926.22;4976154;28;45408;-49
2022/12/21 03:55:33;;;;;;;;;3.00;2.00;;;;;11.71;81.76;100924.81;4976267;28;45428;-48
2022/12/21 03:58:00;;;;;;;;;3.00;2.00;;;;;11.70;81.48;100919.63;4976387;28;45180;-48
2022/12/21 04:00:32;;;;;;;;;1.00;1.00;;;;;11.70;80.99;100924.94;4975863;28;46218;-50
2022/12/21 04:03:12;;;;;;;;;1.33;1.33;;;;;11.60;81.06;100908.19;4976082;28;45375;-48
2022/12/21 04:05:54;;;;;;;;;1.00;1.00;;;;;11.66;80.63;100919.06;4975871;28;45338;-47
2022/12/21 04:08:22;;;;;;;;;2.00;1.00;;;;;11.58;80.53;100910.97;4976527;28;45499;-48
2022/12/21 04:10:48;;;;;;;;;4.00;1.00;;;;;11.65;80.51;100922.72;4976067;28;46113;-53
2022/12/21 04:13:14;;;;;;;;;1.00;1.00;;;;;11.66;79.75;100927.06;4975646;28;45507;-56
2022/12/21 04:21:07;;;;;;;;;1.00;1.00;;;;;11.60;79.76;100937.50;4975897;28;45382;-49
2022/12/21 04:29:01;;;;;;;;;0.33;0.33;;;;;11.57;80.07;100951.94;4976066;28;45346;-53
2022/12/21 04:31:26;;;;;;;;;1.33;1.33;;;;;11.59;79.58;100957.97;4975796;28;45425;-46
2022/12/21 04:33:51;;;;;;;;;2.00;2.00;;;;;11.60;79.76;100950.81;4975511;28;47243;-55
2022/12/21 04:39:00;;;;;;;;;1.00;1.00;;;;;11.57;79.22;100951.94;4976027;28;45350;-47
2022/12/21 04:41:26;;;;;;;;;2.33;1.67;;;;;11.54;79.69;100946.91;4975653;28;45413;-52
2022/12/21 04:43:51;;;;;;;;;5.67;1.00;;;;;11.52;79.72;100948.06;4975743;28;45253;-48
2022/12/21 04:46:17;;;;;;;;;2.00;1.33;;;;;11.54;79.51;100946.91;4975378;28;51752;-54
2022/12/21 04:48:44;;;;;;;;;1.00;1.00;;;;;11.54;79.59;100946.06;4975722;28;45450;-51
2022/12/21 04:51:12;;;;;;;;;1.00;1.00;;;;;11.52;79.23;100946.22;4975384;28;45475;-50
2022/12/21 04:53:38;;;;;;;;;1.00;1.00;;;;;11.52;79.26;100964.88;4975419;28;45316;-47
2022/12/21 04:56:04;;;;;;;;;2.67;1.00;;;;;11.53;79.48;100958.56;4975522;28;45409;-50
2022/12/21 04:58:31;;;;;;;;;1.00;1.00;;;;;11.53;79.70;100952.38;4975613;27;45311;-57
2022/12/21 05:00:57;;;;;;;;;0.67;0.67;;;;;11.48;79.66;100960.81;4975363;28;46163;-55
2022/12/21 05:03:22;;;;;;;;;3.00;1.00;;;;;11.47;79.91;100977.81;4975642;28;45241;-56
2022/12/21 05:05:47;;;;;;;;;1.00;1.00;;;;;11.47;79.67;100964.47;4975606;28;45253;-52
2022/12/21 05:08:13;;;;;;;;;1.00;1.00;;;;;11.46;79.53;100968.09;4975403;28;45387;-48
2022/12/21 05:10:39;;;;;;;;;2.33;1.00;;;;;11.45;79.21;100974.44;4973409;28;45843;-50
2022/12/21 05:13:04;;;;;;;;;1.00;1.00;;;;;11.44;79.28;100972.75;4974940;28;45384;-52
2022/12/21 05:15:30;;;;;;;;;2.00;2.00;;;;;11.41;78.70;100968.56;4975333;28;45256;-55
2022/12/21 05:17:57;;;;;;;;;3.00;1.00;;;;;11.41;78.74;100979.19;4975539;28;45552;-48
2022/12/21 05:20:22;;;;;;;;;2.00;1.67;;;;;11.43;78.66;100977.25;4974986;28;47078;-49
2022/12/21 05:22:47;;;;;;;;;1.33;1.33;;;;;11.42;78.65;100980.06;4975091;28;45379;-47
2022/12/21 05:25:13;;;;;;;;;4.00;4.00;;;;;11.44;79.03;100978.09;4975240;28;45252;-47
2022/12/21 05:27:38;;;;;;;;;3.00;3.00;;;;;11.42;78.49;100969.41;4975593;28;45285;-50
2022/12/21 05:30:04;;;;;;;;;2.00;1.00;;;;;11.42;78.32;100974.75;4974779;28;46734;-48
2022/12/21 05:32:29;;;;;;;;;1.00;1.00;;;;;11.39;78.56;100973.19;4974856;28;45388;-56
2022/12/21 05:34:55;;;;;;;;;1.00;1.00;;;;;11.37;77.88;100969.00;4975143;28;45301;-50
2022/12/21 05:37:20;;;;;;;;;2.00;2.00;;;;;11.36;77.80;100967.31;4975307;28;45570;-49
2022/12/21 05:39:45;;;;;;;;;3.00;2.00;;;;;11.34;77.68;100979.97;4974725;28;46293;-48
2022/12/21 05:42:11;;;;;;;;;1.33;1.33;;;;;11.29;77.82;100972.38;4975002;28;45454;-49
2022/12/21 05:44:36;;;;;;;;;0.00;0.00;;;;;11.29;77.87;100983.03;4975061;28;45446;-47
2022/12/21 05:47:01;;;;;;;;;1.00;1.00;;;;;11.29;77.78;100980.38;4974949;28;45346;-50
2022/12/21 05:49:27;;;;;;;;;1.00;1.00;;;;;11.27;78.17;100984.19;4974935;28;47002;-47
2022/12/21 05:51:52;;;;;;;;;2.00;1.00;;;;;11.26;77.78;100982.50;4973657;28;45827;-47
2022/12/21 05:54:18;;;;;;;;;2.00;2.00;;;;;11.24;78.24;100987.97;4975129;28;45419;-45
2022/12/21 05:56:43;;;;;;;;;1.67;1.00;;;;;11.21;77.87;100991.78;4975593;28;45297;-49
2022/12/21 05:59:09;;;;;;;;;20.67;13.00;;;;;11.20;78.17;100995.41;4975239;28;46440;-49
2022/12/21 06:01:34;;;;;;;;;2.00;2.00;;;;;11.17;78.09;100987.72;4975100;28;45323;-50
2022/12/21 06:04:00;;;;;;;;;1.00;1.00;;;;;11.14;78.21;100988.00;4975291;28;45375;-56
2022/12/21 06:06:25;;;;;;;;;1.00;1.00;;;;;11.12;78.46;100991.78;4975292;28;45378;-49
2022/12/21 06:08:50;;;;;;;;;3.00;1.00;;;;;11.08;78.31;100985.94;4974907;28;46343;-47
2022/12/21 06:11:21;;;;;;;;;2.00;2.00;;;;;11.07;78.82;100986.88;4974913;28;45278;-46
2022/12/21 06:13:47;;;;;;;;;2.00;2.00;;;;;11.08;78.42;100987.72;4974527;28;45523;-48
2022/12/21 06:16:16;;;;;;;;;3.67;2.00;;;;;10.91;78.17;100966.22;4974663;28;45256;-46
2022/12/21 06:18:42;;;;;;;;;6.67;5.00;;;;;11.00;78.70;100985.81;4974363;28;47087;-48
2022/12/21 06:21:09;;;;;;;;;3.67;2.00;;;;;11.00;78.75;100985.81;4973423;28;45427;-47
2022/12/21 06:23:35;;;;;;;;;4.67;4.00;;;;;10.96;78.50;100987.91;4974160;28;45330;-48
2022/12/21 06:26:02;;;;;;;;;4.33;3.00;;;;;10.91;78.59;100987.50;4974633;28;45288;-55
2022/12/21 06:28:29;;;;;;;;;3.00;2.67;;;;;10.93;78.68;100996.16;4974083;28;46271;-46
2022/12/21 06:31:00;;;;;;;;;5.00;2.00;;;;;10.83;78.55;100987.38;4975806;28;45343;-48
2022/12/21 06:33:25;;;;;;;;;2.67;1.00;;;;;10.90;78.49;101006.25;4975960;28;45382;-47
2022/12/21 06:35:57;;;;;;;;;4.00;2.33;;;;;10.88;78.27;101002.91;4974496;28;45295;-48
2022/12/21 06:38:24;;;;;;;;;2.00;2.00;;;;;10.87;78.43;101023.38;4974080;28;47034;-51
2022/12/21 06:40:57;;;;;;;;;2.33;1.67;;;;;10.80;78.67;101011.59;4974304;28;45169;-46
2022/12/21 06:43:23;;;;;;;;;2.67;2.00;;;;;10.80;78.39;101016.09;4974308;28;45309;-48
2022/12/21 06:45:57;;;;;;;;;2.00;2.00;;;;;10.75;78.53;101011.19;4976153;28;45193;-46
2022/12/21 06:48:24;;;;;;;;;3.67;1.67;;;;;10.69;78.80;101011.75;4973748;28;47090;-49
2022/12/21 06:50:52;;;;;;;;;2.00;2.00;;;;;10.65;78.90;101005.00;4974103;28;45247;-49
2022/12/21 06:53:17;;;;;;;;;1.00;1.00;;;;;10.65;79.10;101010.34;4974050;28;45358;-52
2022/12/21 06:55:43;;;;;;;;;1.67;1.00;;;;;10.61;79.17;101011.59;4974272;28;45269;-46
2022/12/21 06:58:08;;;;;;;;;1.00;1.00;;;;;10.58;79.15;101018.06;4973689;28;53468;-46
2022/12/21 07:00:33;;;;;;;;;4.33;2.00;;;;;10.56;79.36;101021.81;4973502;28;48233;-45
2022/12/21 07:02:58;;;;;;;;;2.00;2.00;;;;;10.51;79.25;101024.91;4974028;28;45345;-53
2022/12/21 07:05:24;;;;;;;;;2.00;2.00;;;;;10.51;78.65;101021.41;4974095;28;45403;-49
2022/12/21 07:07:49;;;;;;;;;3.00;2.00;;;;;10.48;79.25;101022.53;4973834;28;46997;-58
2022/12/21 07:10:14;;;;;;;;;5.33;3.00;;;;;10.45;79.10;101026.31;4973987;28;45321;-47
2022/12/21 07:12:40;;;;;;;;;10.33;5.33;;;;;10.42;79.37;101029.25;4973943;28;45742;-49
2022/12/21 07:15:05;;;;;;;;;5.00;3.00;;;;;10.42;79.17;101039.03;4973853;28;45373;-50
2022/12/21 07:17:31;;;;;;;;;5.00;2.00;;;;;10.38;79.31;101033.16;4973429;28;46316;-46
2022/12/21 07:19:56;;;;;;;;;3.00;2.67;;;;;10.43;79.23;101036.22;4971842;28;50129;-52
2022/12/21 07:22:21;;;;;;;;;5.00;5.00;;;;;10.43;78.83;101030.09;4973518;28;45266;-45
2022/12/21 07:24:47;;;;;;;;;2.67;2.67;;;;;10.42;78.97;101034.56;4973655;28;45334;-49
2022/12/21 07:27:12;;;;;;;;;8.00;5.00;;;;;10.37;78.73;101034.16;4973616;28;45425;-50
2022/12/21 07:29:38;;;;;;;;;5.00;3.00;;;;;10.38;78.95;101032.31;4973568;28;45228;-48
2022/12/21 07:32:03;;;;;;;;;6.00;5.33;;;;;10.31;78.59;101029.34;4973453;28;45193;-47
2022/12/21 07:34:28;;;;;;;;;5.00;3.00;;;;;10.31;78.63;101031.19;4976375;28;45357;-47
2022/12/21 07:36:54;;;;;;;;;9.33;5.67;;;;;10.28;78.87;101042.94;4976433;28;50008;-46
2022/12/21 07:39:19;;;;;;;;;6.00;4.33;;;;;10.27;78.91;101038.59;4976222;28;45376;-45
2022/12/21 07:41:44;;;;;;;;;3.67;3.67;;;;;10.28;78.79;101052.72;4976333;28;45302;-47
2022/12/21 07:44:10;;;;;;;;;7.00;5.00;;;;;10.24;78.87;101055.69;4976729;28;45448;-47
2022/12/21 07:46:35;;;;;;;;;2.67;2.67;;;;;10.23;78.74;101061.91;4976136;28;45334;-52
2022/12/21 07:49:00;;;;;;;;;5.33;3.00;;;;;10.21;78.76;101058.56;4976112;28;45284;-49
2022/12/21 07:51:26;;;;;;;;;5.67;5.67;;;;;10.18;78.92;101056.16;4976485;28;45615;-54
2022/12/21 07:53:51;;;;;;;;;6.33;5.00;;;;;10.17;78.89;101074.94;4976436;28;45345;-48
2022/12/21 07:56:18;;;;;;;;;7.00;7.00;;;;;10.16;79.01;101067.94;4976112;28;47026;-59
2022/12/21 07:58:44;;;;;;;;;5.67;5.00;;;;;10.13;79.03;101066.38;4976054;28;45346;-46
2022/12/21 08:01:14;;;;;;;;;14.33;5.33;;;;;10.13;79.01;101071.69;4976135;28;45321;-48
2022/12/21 08:03:41;;;;;;;;;3.67;3.67;;;;;10.13;79.22;101063.72;4976358;28;45553;-48
2022/12/21 08:06:07;;;;;;;;;7.00;4.00;;;;;10.15;78.82;101080.38;4976017;27;46014;-48
2022/12/21 08:08:33;;;;;;;;;6.33;6.00;;;;;10.13;79.09;101078.84;4975607;28;45507;-46
2022/12/21 08:10:59;;;;;;;;;6.33;6.33;;;;;10.05;79.20;101062.72;4976149;28;45461;-47
2022/12/21 08:13:24;;;;;;;;;5.00;5.00;;;;;10.13;79.30;101082.31;4976250;28;45440;-46
2022/12/21 08:16:04;;;;;;;;;6.00;6.00;;;;;10.10;78.98;101076.44;4975985;28;46151;-58
2022/12/21 08:18:30;;;;;;;;;6.00;6.00;;;;;10.12;79.33;101080.66;4975920;28;45263;-58
2022/12/21 08:20:56;;;;;;;;;7.00;7.00;;;;;10.13;79.32;101076.19;4975766;28;45289;-55
2022/12/21 08:23:22;;;;;;;;;8.00;7.00;;;;;10.14;79.15;101084.00;4976052;28;45298;-59
2022/12/21 08:25:47;;;;;;;;;8.33;8.33;;;;;10.14;79.31;101072.53;4975730;28;47378;-46
2022/12/21 08:28:13;;;;;;;;;12.00;7.67;;;;;10.18;79.32;101079.25;4975505;28;45333;-47
2022/12/21 08:30:39;;;;;;;;;15.67;8.33;;;;;10.19;79.43;101083.59;4975851;28;45417;-49
2022/12/21 08:33:04;;;;;;;;;7.33;7.33;;;;;10.23;79.33;101085.00;4976009;28;45527;-48
2022/12/21 08:35:30;;;;;;;;;14.00;7.33;;;;;10.27;79.15;101082.94;4975155;28;51713;-47
2022/12/21 08:37:55;;;;;;;;;9.00;7.00;;;;;10.30;78.86;101072.06;4975672;28;45347;-58
2022/12/21 08:40:21;;;;;;;;;11.33;7.00;;;;;10.32;78.83;101056.78;4975769;28;45328;-47
2022/12/21 08:42:46;;;;;;;;;8.67;6.33;;;;;10.38;78.80;101066.91;4977623;27;45333;-50
2022/12/21 08:45:12;;;;;;;;;7.67;7.67;;;;;10.43;78.21;101075.28;4974574;28;46635;-48
2022/12/21 08:47:38;;;;;;;;;11.33;8.33;;;;;10.46;78.53;101072.38;4975458;28;45219;-48
2022/12/21 08:50:04;;;;;;;;;16.33;10.00;;;;;10.45;78.41;101065.38;4975911;28;45374;-55
2022/12/21 08:52:29;;;;;;;;;6.33;5.67;;;;;10.56;78.19;101075.03;4975761;28;45401;-51
2022/12/21 08:54:54;;;;;;;;;11.00;11.00;;;;;10.63;78.14;101079.66;4975221;28;46467;-57
2022/12/21 08:57:20;;;;;;;;;15.33;8.33;;;;;10.68;78.08;101085.41;4975626;28;49608;-58
2022/12/21 08:59:45;;;;;;;;;12.00;9.00;;;;;10.75;77.83;101083.03;4975804;28;45233;-48
2022/12/21 09:02:11;;;;;;;;;10.33;8.67;;;;;10.78;78.06;101080.06;4975548;28;45371;-47
2022/12/21 09:04:36;;;;;;;;;11.33;5.00;;;;;10.83;77.82;101071.66;4975319;28;46192;-51
2022/12/21 09:07:01;;;;;;;;;6.67;5.00;;;;;10.85;77.21;101069.72;4975108;28;52438;-49
2022/12/21 09:09:27;;;;;;;;;6.00;3.00;;;;;10.83;77.01;101058.38;4975095;28;48509;-51
2022/12/21 09:11:52;;;;;;;;;11.00;5.67;;;;;10.84;76.92;101068.88;4975478;28;45446;-58
2022/12/21 09:14:17;;;;;;;;;5.67;5.00;;;;;10.90;76.93;101060.31;4977120;28;46435;-50
2022/12/21 09:16:43;;;;;;;;;7.00;7.00;;;;;11.11;76.86;101068.16;4974909;28;48415;-56
2022/12/21 09:19:08;;;;;;;;;8.00;6.67;;;;;11.27;76.24;101080.06;4975202;28;45425;-52
2022/12/21 09:21:34;;;;;;;;;10.33;7.00;;;;;11.30;76.16;101075.28;4975659;28;45496;-60
2022/12/21 09:23:59;;;;;;;;;10.33;6.33;;;;;11.38;75.67;101077.25;4974894;28;45863;-58
2022/12/21 09:26:24;;;;;;;;;8.67;6.00;;;;;11.32;75.26;101051.16;4975027;28;45376;-52
2022/12/21 09:28:50;;;;;;;;;6.67;6.67;;;;;11.40;75.55;101077.91;4975009;28;45417;-50
2022/12/21 09:31:18;;;;;;;;;7.00;6.33;;;;;11.38;75.23;101074.56;4975257;28;45383;-59
2022/12/21 09:33:43;;;;;;;;;5.00;3.67;;;;;11.37;75.36;101070.22;4974963;28;46244;-60
2022/12/21 09:36:11;;;;;;;;;8.00;4.00;;;;;11.29;75.94;101038.13;4974795;28;45424;-49
2022/12/21 09:38:37;;;;;;;;;6.33;6.33;;;;;11.25;75.83;101048.25;4974849;28;45383;-54
2022/12/21 09:41:28;;;;;;;;;7.33;6.00;;;;;11.34;75.93;101079.34;4975015;28;45295;-50
2022/12/21 09:44:08;;;;;;;;;9.00;6.00;;;;;11.30;76.29;101093.09;4974842;28;45312;-49
2022/12/21 09:46:39;;;;;;;;;11.00;7.00;;;;;11.26;75.74;101086.38;4974663;28;45314;-60
2022/12/21 09:49:16;;;;;;;;;4.67;4.67;;;;;11.26;75.94;101087.22;4974789;28;45372;-48
2022/12/21 09:51:53;;;;;;;;;6.00;5.00;;;;;11.24;76.19;101099.81;4974939;28;45441;-50
2022/12/21 09:54:23;;;;;;;;;5.00;5.00;;;;;11.24;76.02;101099.81;4974644;28;46355;-53
2022/12/21 09:56:52;;;;;;;;;6.00;4.00;;;;;11.24;75.78;101103.31;4974433;28;45306;-51
2022/12/21 09:59:20;;;;;;;;;7.00;3.00;;;;;11.20;76.66;101096.59;4974837;28;45343;-54
2022/12/21 10:01:57;;;;;;;;;7.00;6.00;;;;;11.24;76.40;101105.97;4974975;28;45370;-50
2022/12/21 10:04:38;;;;;;;;;7.67;3.67;;;;;11.23;76.60;101104.28;4974577;28;45354;-56
2022/12/21 10:07:28;;;;;;;;;10.33;7.67;;;;;11.22;76.16;101102.63;4974585;28;45403;-49
2022/12/21 10:10:17;;;;;;;;;6.00;6.00;;;;;11.24;76.38;101097.97;4974578;28;45479;-46
2022/12/21 10:12:57;;;;;;;;;7.33;3.00;;;;;11.23;76.27;101114.13;4952653;28;45657;-55
2022/12/21 10:15:53;;;;;;;;;6.00;4.00;;;;;11.22;76.25;101110.63;4952546;28;46226;-46
2022/12/21 10:18:28;;;;;;;;;3.00;3.00;;;;;11.21;76.53;101111.59;4952706;28;45598;-52
2022/12/21 10:21:12;;;;;;;;;4.00;3.00;;;;;11.18;76.07;101100.38;4952549;28;45364;-48
2022/12/21 10:23:45;;;;;;;;;5.67;3.00;;;;;11.16;76.54;101097.00;4952720;28;45507;-56
2022/12/21 10:26:15;;;;;;;;;6.33;3.00;;;;;11.14;76.61;101086.50;4952722;28;46115;-49
2022/12/21 10:28:58;;;;;;;;;8.00;7.67;;;;;11.12;76.48;101087.63;4952545;28;45286;-55
2022/12/21 10:31:38;;;;;;;;;5.00;4.33;;;;;11.12;76.70;101071.66;4952459;28;45251;-49
2022/12/21 10:34:23;;;;;;;;;10.00;6.00;;;;;11.12;76.95;101075.16;4952530;28;45438;-50
2022/12/21 10:36:54;;;;;;;;;7.33;5.00;;;;;11.10;76.72;101074.47;4952212;28;45556;-49
2022/12/21 10:39:20;;;;;;;;;7.33;6.67;;;;;11.06;77.08;101067.75;4952351;28;45331;-46
2022/12/21 10:42:00;;;;;;;;;3.33;2.67;;;;;11.04;76.76;101063.53;4952603;28;45334;-57
2022/12/21 10:44:26;;;;;;;;;6.33;6.33;;;;;11.05;76.97;101059.91;4952587;28;45582;-48
2022/12/21 10:46:51;;;;;;;;;7.33;6.00;;;;;11.05;77.17;101058.09;4952143;28;46023;-50
2022/12/21 10:49:28;;;;;;;;;8.00;4.00;;;;;11.04;77.45;101056.41;4958032;28;45445;-57
2022/12/21 10:51:53;;;;;;;;;6.00;5.67;;;;;11.01;77.33;101038.06;4974262;28;45233;-52
2022/12/21 10:54:28;;;;;;;;;8.67;7.33;;;;;10.98;77.29;101041.81;4974204;28;45228;-50
2022/12/21 10:56:58;;;;;;;;;6.00;6.00;;;;;10.97;77.50;101026.00;4974085;28;46141;-50
2022/12/21 10:59:28;;;;;;;;;8.33;6.67;;;;;10.94;77.71;101018.31;4973728;28;45322;-47
2022/12/21 11:01:54;;;;;;;;;7.33;5.00;;;;;10.92;77.66;101029.09;4974105;28;45346;-60
2022/12/21 11:04:23;;;;;;;;;12.67;5.33;;;;;10.91;77.57;101024.78;4974217;28;45443;-59
2022/12/21 11:07:21;;;;;;;;;8.00;4.33;;;;;10.91;77.47;101018.56;4973820;28;46238;-48
2022/12/21 11:10:02;;;;;;;;;4.00;3.00;;;;;10.92;78.04;101018.44;4975987;28;45382;-45
2022/12/21 11:12:28;;;;;;;;;8.00;5.67;;;;;10.98;77.59;101007.22;4976818;28;45269;-48
2022/12/21 11:14:55;;;;;;;;;9.33;6.33;;;;;11.00;77.70;101007.09;4977153;28;45864;-48
2022/12/21 11:17:25;;;;;;;;;10.67;7.00;;;;;10.85;77.73;100971.25;4976712;28;46184;-50
2022/12/21 11:19:59;;;;;;;;;11.33;8.00;;;;;11.05;77.95;101002.19;4976397;28;45594;-49
2022/12/21 11:22:28;;;;;;;;;14.67;8.00;;;;;11.16;77.50;101004.66;4976718;28;45314;-44
2022/12/21 11:24:57;;;;;;;;;10.00;8.00;;;;;11.21;77.48;101004.25;4976761;28;45287;-49
2022/12/21 11:27:26;;;;;;;;;7.33;6.33;;;;;11.23;77.51;100994.28;4976584;28;46188;-49
2022/12/21 11:29:56;;;;;;;;;15.00;7.00;;;;;11.32;77.13;101006.72;4976578;28;45358;-48
2022/12/21 11:32:22;;;;;;;;;11.67;11.33;;;;;11.30;76.94;100984.72;4977739;28;45350;-47
2022/12/21 11:34:54;;;;;;;;;13.00;8.00;;;;;11.33;76.75;100992.41;4976546;28;45253;-52
2022/12/21 11:37:23;;;;;;;;;10.33;6.00;;;;;11.33;77.23;100986.25;4976381;28;45436;-46
2022/12/21 11:39:48;;;;;;;;;11.00;7.33;;;;;11.32;77.08;100966.78;4976501;28;45266;-48
2022/12/21 11:42:19;;;;;;;;;11.67;7.67;;;;;11.33;77.45;100973.75;4976354;28;45323;-47
2022/12/21 11:44:45;;;;;;;;;14.67;11.33;;;;;11.34;77.52;100972.81;4978915;27;45534;-47
2022/12/21 11:47:39;;;;;;;;;12.67;6.67;;;;;11.37;77.62;100961.84;4976145;28;46217;-47
2022/12/21 11:50:13;;;;;;;;;11.33;6.00;;;;;11.40;77.30;100956.22;4976520;28;45353;-55